createdAt,value
2022-10-22T00:02:24.616Z,1.15
2022-10-22T00:04:51.690Z,1.00
2022-10-22T00:07:19.333Z,1.05
2022-10-22T00:09:47.201Z,1.10
2022-10-22T00:12:16.033Z,1.13
2022-10-22T00:14:43.553Z,1.65
2022-10-22T00:17:11.487Z,1.40
2022-10-22T00:19:40.032Z,1.63
2022-10-22T00:22:08.758Z,1.98
2022-10-22T00:24:38.635Z,2.30
2022-10-22T00:27:06.847Z,1.17
2022-10-22T00:29:35.184Z,1.55
2022-10-22T00:32:02.550Z,1.70
2022-10-22T00:34:29.801Z,1.95
2022-10-22T00:36:57.862Z,1.58
2022-10-22T00:39:26.326Z,1.40
2022-10-22T00:41:54.636Z,1.50
2022-10-22T00:44:59.502Z,1.30
2022-10-22T00:47:29.123Z,1.25
2022-10-22T00:49:57.475Z,1.25
2022-10-22T00:52:25.236Z,3.22
2022-10-22T00:54:52.785Z,1.20
2022-10-22T00:57:21.445Z,0.90
2022-10-22T00:59:49.136Z,1.10
2022-10-22T01:02:16.995Z,1.15
2022-10-22T01:04:44.918Z,0.85
2022-10-22T01:07:21.503Z,0.90
2022-10-22T01:09:51.346Z,1.25
2022-10-22T01:13:07.024Z,1.60
2022-10-22T01:15:43.405Z,0.82
2022-10-22T01:18:29.429Z,0.80
2022-10-22T01:20:56.300Z,0.80
2022-10-22T01:23:53.060Z,0.75
2022-10-22T01:26:42.836Z,0.82
2022-10-22T01:29:34.438Z,0.70
2022-10-22T01:32:05.902Z,1.00
2022-10-22T01:34:34.648Z,0.75
2022-10-22T01:37:03.089Z,0.80
2022-10-22T01:39:31.676Z,0.75
2022-10-22T01:41:58.670Z,0.80
2022-10-22T01:44:31.891Z,0.90
2022-10-22T01:47:21.489Z,1.05
2022-10-22T01:50:14.429Z,0.80
2022-10-22T01:53:26.544Z,0.82
2022-10-22T01:56:15.227Z,0.65
2022-10-22T01:58:53.141Z,1.02
2022-10-22T02:01:32.388Z,0.90
2022-10-22T02:04:11.561Z,0.93
2022-10-22T02:06:41.268Z,0.90
2022-10-22T02:09:10.702Z,1.20
2022-10-22T02:11:38.879Z,1.00
2022-10-22T02:14:09.282Z,0.70
2022-10-22T02:16:42.219Z,0.65
2022-10-22T02:19:19.962Z,1.10
2022-10-22T02:21:47.150Z,0.65
2022-10-22T02:24:14.748Z,0.98
2022-10-22T02:27:12.197Z,0.63
2022-10-22T02:29:52.297Z,0.80
2022-10-22T02:32:24.889Z,0.50
2022-10-22T02:34:54.093Z,0.63
2022-10-22T02:37:22.882Z,0.30
2022-10-22T02:39:51.538Z,0.68
2022-10-22T02:42:18.629Z,0.63
2022-10-22T02:44:45.613Z,0.88
2022-10-22T02:47:12.698Z,0.50
2022-10-22T02:49:39.608Z,0.80
2022-10-22T02:52:06.703Z,0.70
2022-10-22T02:54:33.791Z,0.88
2022-10-22T02:57:00.705Z,1.10
2022-10-22T02:59:27.613Z,0.70
2022-10-22T03:01:54.558Z,1.60
2022-10-22T03:04:21.522Z,1.02
2022-10-22T03:06:49.286Z,0.60
2022-10-22T03:09:17.484Z,0.75
2022-10-22T03:11:47.244Z,0.75
2022-10-22T03:14:14.597Z,0.68
2022-10-22T03:16:41.753Z,0.50
2022-10-22T03:19:08.807Z,0.40
2022-10-22T03:21:41.598Z,0.50
2022-10-22T03:24:13.861Z,0.40
2022-10-22T03:26:42.244Z,0.32
2022-10-22T03:29:12.032Z,0.50
2022-10-22T03:31:39.012Z,0.57
2022-10-22T03:34:06.014Z,0.60
2022-10-22T03:36:33.518Z,0.40
2022-10-22T03:39:01.938Z,0.80
2022-10-22T03:41:29.359Z,1.00
2022-10-22T03:43:57.622Z,1.35
2022-10-22T03:46:24.606Z,1.88
2022-10-22T03:48:51.577Z,8.23
2022-10-22T03:51:18.631Z,1.90
2022-10-22T03:53:45.626Z,1.58
2022-10-22T03:56:13.282Z,0.82
2022-10-22T03:58:41.489Z,1.30
2022-10-22T04:01:10.938Z,1.58
2022-10-22T04:03:40.038Z,1.10
2022-10-22T04:06:09.516Z,0.95
2022-10-22T04:08:39.795Z,0.80
2022-10-22T04:11:07.201Z,7.65
2022-10-22T04:13:34.657Z,1.00
2022-10-22T04:16:20.111Z,8.05
2022-10-22T04:18:48.603Z,2.47
2022-10-22T04:21:19.285Z,1.08
2022-10-22T04:23:48.064Z,1.15
2022-10-22T04:26:15.686Z,1.75
2022-10-22T04:28:42.887Z,1.08
2022-10-22T04:31:15.648Z,1.85
2022-10-22T04:33:43.047Z,1.25
2022-10-22T04:36:12.881Z,1.20
2022-10-22T04:38:40.924Z,1.10
2022-10-22T04:41:16.995Z,1.30
2022-10-22T04:43:44.875Z,1.38
2022-10-22T04:46:13.293Z,1.65
2022-10-22T04:48:42.611Z,0.82
2022-10-22T04:51:12.899Z,0.77
2022-10-22T04:53:43.366Z,2.25
2022-10-22T04:56:36.653Z,0.80
2022-10-22T04:59:08.152Z,0.80
2022-10-22T05:01:41.666Z,0.60
2022-10-22T05:04:13.337Z,1.50
2022-10-22T05:06:40.429Z,0.77
2022-10-22T05:09:11.193Z,0.50
2022-10-22T05:11:41.767Z,0.63
2022-10-22T05:14:10.723Z,0.80
2022-10-22T05:16:40.803Z,0.40
2022-10-22T05:19:08.322Z,0.20
2022-10-22T05:21:37.637Z,1.20
2022-10-22T05:24:04.933Z,0.80
2022-10-22T05:26:31.869Z,0.60
2022-10-22T05:28:58.886Z,0.50
2022-10-22T05:31:26.286Z,1.30
2022-10-22T05:33:53.164Z,0.80
2022-10-22T05:36:22.445Z,0.30
2022-10-22T05:38:50.105Z,1.80
2022-10-22T05:41:20.519Z,1.45
2022-10-22T05:43:47.528Z,1.38
2022-10-22T05:46:22.004Z,1.15
2022-10-22T05:48:57.539Z,1.00
2022-10-22T05:51:25.798Z,0.90
2022-10-22T05:53:55.354Z,0.60
2022-10-22T05:56:23.505Z,0.45
2022-10-22T05:58:50.989Z,0.30
2022-10-22T06:01:19.230Z,1.42
2022-10-22T06:03:47.835Z,1.00
2022-10-22T06:06:26.235Z,0.50
2022-10-22T06:08:54.381Z,0.50
2022-10-22T06:11:23.307Z,5.47
2022-10-22T06:13:51.085Z,2.42
2022-10-22T06:16:18.360Z,4.97
2022-10-22T06:18:45.723Z,2.30
2022-10-22T06:21:14.510Z,3.83
2022-10-22T06:23:44.012Z,1.95
2022-10-22T06:26:11.688Z,3.33
2022-10-22T06:28:39.297Z,3.70
2022-10-22T06:31:07.017Z,6.30
2022-10-22T06:33:34.506Z,4.60
2022-10-22T06:36:09.244Z,4.97
2022-10-22T06:38:36.179Z,1.88
2022-10-22T06:41:05.452Z,9.88
2022-10-22T06:43:32.532Z,9.45
2022-10-22T06:46:04.566Z,4.53
2022-10-22T06:48:31.729Z,8.02
2022-10-22T06:51:06.175Z,2.70
2022-10-22T06:53:33.519Z,2.28
2022-10-22T06:56:05.914Z,2.08
2022-10-22T06:58:32.852Z,3.25
2022-10-22T07:01:05.222Z,1.20
2022-10-22T07:03:32.270Z,1.92
2022-10-22T07:06:01.459Z,1.10
2022-10-22T07:08:29.242Z,0.85
2022-10-22T07:10:56.814Z,0.80
2022-10-22T07:13:23.776Z,0.77
2022-10-22T07:15:55.146Z,0.90
2022-10-22T07:18:22.575Z,0.50
2022-10-22T07:20:49.783Z,0.70
2022-10-22T07:23:17.487Z,0.60
2022-10-22T07:25:44.538Z,0.60
2022-10-22T07:28:11.798Z,0.63
2022-10-22T07:30:40.293Z,0.60
2022-10-22T07:33:07.759Z,0.70
2022-10-22T07:35:35.133Z,0.70
2022-10-22T07:38:02.154Z,0.60
2022-10-22T07:40:29.142Z,0.77
2022-10-22T07:42:56.337Z,0.68
2022-10-22T07:45:23.454Z,0.50
2022-10-22T07:47:50.499Z,0.55
2022-10-22T07:50:18.446Z,0.80
2022-10-22T07:52:45.578Z,0.60
2022-10-22T07:55:13.611Z,0.35
2022-10-22T07:57:40.993Z,0.50
2022-10-22T08:00:09.598Z,0.75
2022-10-22T08:02:39.768Z,0.57
2022-10-22T08:05:07.735Z,0.38
2022-10-22T08:07:34.780Z,0.50
2022-10-22T08:10:02.014Z,0.40
2022-10-22T08:12:29.374Z,0.52
2022-10-22T08:14:56.500Z,0.88
2022-10-22T08:17:23.481Z,1.58
2022-10-22T08:19:50.562Z,0.30
2022-10-22T08:22:17.564Z,0.50
2022-10-22T08:24:44.668Z,0.40
2022-10-22T08:27:11.678Z,0.50
2022-10-22T08:29:38.975Z,0.50
2022-10-22T08:32:06.000Z,0.40
2022-10-22T08:34:33.053Z,0.40
2022-10-22T08:37:00.140Z,0.35
2022-10-22T08:39:27.351Z,0.60
2022-10-22T08:42:31.864Z,0.60
2022-10-22T08:45:25.350Z,1.17
2022-10-22T08:48:04.440Z,0.50
2022-10-22T08:50:38.909Z,0.50
2022-10-22T08:53:15.898Z,0.57
2022-10-22T08:55:44.624Z,0.50
2022-10-22T08:58:32.364Z,0.30
2022-10-22T09:01:02.798Z,0.38
2022-10-22T09:03:38.663Z,0.80
2022-10-22T09:06:16.013Z,0.43
2022-10-22T09:08:45.126Z,0.40
2022-10-22T09:11:23.072Z,0.30
2022-10-22T09:13:51.392Z,0.47
2022-10-22T09:16:59.915Z,0.50
2022-10-22T09:19:35.873Z,0.30
2022-10-22T09:22:30.469Z,0.40
2022-10-22T09:25:26.009Z,0.50
2022-10-22T09:27:58.309Z,0.17
2022-10-22T09:30:29.978Z,0.28
2022-10-22T09:33:08.174Z,0.30
2022-10-22T09:35:46.822Z,0.43
2022-10-22T09:38:16.202Z,0.40
2022-10-22T09:40:53.568Z,0.30
2022-10-22T09:43:21.302Z,0.40
2022-10-22T09:46:01.804Z,0.35
2022-10-22T09:48:42.066Z,0.50
2022-10-22T09:51:23.162Z,0.40
2022-10-22T09:53:58.795Z,0.70
2022-10-22T09:56:28.806Z,0.40
2022-10-22T09:58:58.069Z,0.50
2022-10-22T10:01:34.100Z,0.47
2022-10-22T10:04:10.180Z,0.70
2022-10-22T10:06:40.487Z,0.40
2022-10-22T10:09:16.638Z,0.40
2022-10-22T10:11:46.956Z,0.52
2022-10-22T10:14:21.722Z,0.47
2022-10-22T10:17:04.849Z,0.30
2022-10-22T10:19:50.184Z,0.50
2022-10-22T10:25:32.991Z,0.50
2022-10-22T10:28:21.032Z,0.70
2022-10-22T10:31:21.768Z,0.80
2022-10-22T10:34:13.423Z,0.93
2022-10-22T10:36:45.453Z,0.88
2022-10-22T10:39:30.442Z,0.55
2022-10-22T10:42:06.865Z,0.88
2022-10-22T10:44:45.783Z,0.80
2022-10-22T10:47:29.030Z,0.63
2022-10-22T10:50:19.883Z,1.17
2022-10-22T10:53:07.716Z,0.85
2022-10-22T10:55:42.465Z,1.25
2022-10-22T10:58:39.325Z,1.08
2022-10-22T11:01:27.361Z,0.88
2022-10-22T11:04:32.076Z,0.93
2022-10-22T11:07:11.536Z,0.90
2022-10-22T11:09:51.199Z,0.82
2022-10-22T11:12:29.065Z,0.70
2022-10-22T11:15:18.079Z,4.28
2022-10-22T11:17:48.985Z,0.80
2022-10-22T11:20:22.597Z,1.27
2022-10-22T11:23:18.826Z,0.90
2022-10-22T11:25:51.355Z,1.40
2022-10-22T11:28:26.052Z,1.50
2022-10-22T11:31:03.315Z,1.27
2022-10-22T11:34:04.675Z,1.67
2022-10-22T11:36:38.345Z,7.32
2022-10-22T11:39:05.620Z,2.22
2022-10-22T11:41:34.653Z,2.17
2022-10-22T11:44:07.685Z,1.33
2022-10-22T11:46:46.217Z,1.50
2022-10-22T11:49:13.192Z,1.67
2022-10-22T11:51:43.098Z,1.70
2022-10-22T11:54:30.241Z,1.58
2022-10-22T11:57:46.567Z,5.13
2022-10-22T12:00:46.314Z,2.10
2022-10-22T12:03:39.960Z,2.17
2022-10-22T12:06:12.922Z,3.10
2022-10-22T12:08:49.069Z,2.63
2022-10-22T12:11:37.938Z,2.70
2022-10-22T12:14:19.560Z,1.60
2022-10-22T12:16:57.439Z,1.90
2022-10-22T12:19:36.138Z,2.30
2022-10-22T12:22:27.080Z,3.13
2022-10-22T12:24:57.369Z,2.78
2022-10-22T12:27:34.899Z,2.35
2022-10-22T12:30:11.100Z,1.67
2022-10-22T12:32:41.507Z,1.92
2022-10-22T12:35:20.645Z,2.15
2022-10-22T12:38:13.629Z,2.30
2022-10-22T12:40:45.825Z,1.73
2022-10-22T12:43:24.260Z,1.70
2022-10-22T12:45:52.173Z,2.15
2022-10-22T12:48:29.358Z,2.53
2022-10-22T12:50:59.796Z,2.97
2022-10-22T12:53:37.950Z,2.20
2022-10-22T12:56:10.608Z,1.85
2022-10-22T12:58:47.480Z,2.72
2022-10-22T13:01:17.435Z,1.60
2022-10-22T13:03:50.867Z,2.05
2022-10-22T13:06:20.996Z,1.88
2022-10-22T13:09:00.475Z,1.88
2022-10-22T13:11:40.169Z,1.75
2022-10-22T13:14:26.376Z,2.00
2022-10-22T13:17:10.519Z,3.60
2022-10-22T13:20:01.927Z,2.50
2022-10-22T13:22:37.991Z,6.88
2022-10-22T13:25:20.000Z,6.05
2022-10-22T13:27:49.843Z,9.18
2022-10-22T13:30:26.620Z,5.35
2022-10-22T13:33:06.057Z,2.63
2022-10-22T13:35:37.473Z,2.67
2022-10-22T13:38:18.529Z,1.85
2022-10-22T13:40:46.235Z,1.83
2022-10-22T13:43:13.186Z,2.45
2022-10-22T13:45:40.647Z,2.05
2022-10-22T13:48:15.001Z,2.65
2022-10-22T13:50:42.038Z,5.03
2022-10-22T13:53:22.279Z,3.45
2022-10-22T13:55:50.399Z,6.05
2022-10-22T13:58:20.278Z,8.68
2022-10-22T14:00:59.118Z,6.85
2022-10-22T14:03:34.656Z,16.52
2022-10-22T14:06:01.809Z,5.97
2022-10-22T14:08:28.923Z,3.40
2022-10-22T14:10:56.317Z,2.90
2022-10-22T14:13:26.731Z,3.15
2022-10-22T14:15:53.906Z,2.60
2022-10-22T14:18:26.511Z,3.35
2022-10-22T14:20:56.966Z,2.75
2022-10-22T14:23:27.526Z,2.50
2022-10-22T14:25:55.596Z,3.00
2022-10-22T14:28:22.775Z,3.40
2022-10-22T14:30:50.477Z,3.13
2022-10-22T14:33:21.302Z,3.63
2022-10-22T14:35:49.276Z,4.90
2022-10-22T14:38:17.898Z,4.57
2022-10-22T14:40:45.670Z,2.85
2022-10-22T14:43:38.197Z,4.13
2022-10-22T14:46:05.319Z,8.20
2022-10-22T14:48:32.368Z,4.50
2022-10-22T14:50:59.378Z,4.50
2022-10-22T14:53:26.307Z,5.03
2022-10-22T14:55:55.634Z,4.20
2022-10-22T14:58:22.666Z,4.15
2022-10-22T15:00:49.719Z,5.57
2022-10-22T15:03:16.850Z,4.75
2022-10-22T15:05:44.991Z,5.13
2022-10-22T15:08:13.666Z,3.85
2022-10-22T15:10:40.946Z,3.30
2022-10-22T15:13:08.191Z,3.28
2022-10-22T15:15:39.644Z,3.05
2022-10-22T15:18:07.238Z,4.15
2022-10-22T15:20:34.280Z,3.50
2022-10-22T15:23:01.285Z,3.92
2022-10-22T15:25:28.895Z,3.90
2022-10-22T15:28:00.677Z,5.45
2022-10-22T15:30:31.900Z,19.98
2022-10-22T15:32:58.830Z,12.38
2022-10-22T15:35:28.930Z,15.15
2022-10-22T15:37:55.967Z,23.90
2022-10-22T15:40:22.979Z,20.52
2022-10-22T15:42:50.998Z,14.93
2022-10-22T15:45:18.385Z,5.75
2022-10-22T15:47:47.630Z,11.05
2022-10-22T15:50:15.205Z,4.75
2022-10-22T15:52:42.100Z,4.10
2022-10-22T15:55:10.756Z,5.40
2022-10-22T15:57:39.199Z,8.05
2022-10-22T16:00:08.165Z,5.47
2022-10-22T16:02:41.972Z,9.13
2022-10-22T16:05:09.490Z,4.68
2022-10-22T16:07:39.771Z,3.83
2022-10-22T16:10:08.008Z,5.97
2022-10-22T16:12:36.146Z,4.60
2022-10-22T16:15:03.251Z,3.83
2022-10-22T16:17:30.343Z,3.53
2022-10-22T16:19:57.298Z,4.47
2022-10-22T16:22:24.488Z,4.80
2022-10-22T16:24:51.416Z,4.53
2022-10-22T16:27:18.438Z,4.68
2022-10-22T16:29:45.435Z,4.45
2022-10-22T16:32:13.393Z,4.30
2022-10-22T16:34:42.096Z,4.65
2022-10-22T16:37:10.480Z,3.58
2022-10-22T16:39:37.900Z,3.25
2022-10-22T16:42:05.301Z,3.55
2022-10-22T16:44:32.286Z,3.70
2022-10-22T16:46:59.368Z,3.42
2022-10-22T16:49:26.729Z,3.78
2022-10-22T16:51:53.675Z,4.75
2022-10-22T16:57:02.681Z,5.05
2022-10-22T16:59:29.597Z,4.10
2022-10-22T17:01:57.507Z,3.65
2022-10-22T17:04:24.518Z,3.72
2022-10-22T17:06:51.559Z,3.45
2022-10-22T17:09:18.715Z,4.47
2022-10-22T17:11:45.685Z,17.40
2022-10-22T17:14:13.891Z,33.53
2022-10-22T17:16:41.073Z,48.60
2022-10-22T17:19:08.322Z,36.83
2022-10-22T17:21:35.327Z,19.95
2022-10-22T17:24:18.629Z,3.80
2022-10-22T17:27:10.874Z,13.02
2022-10-22T17:29:37.960Z,6.72
2022-10-22T17:32:05.161Z,3.90
2022-10-22T17:34:33.402Z,5.90
2022-10-22T17:37:29.094Z,6.20
2022-10-22T17:42:22.854Z,16.35
2022-10-22T17:44:50.016Z,5.45
2022-10-22T17:47:17.022Z,4.07
2022-10-22T17:49:44.108Z,3.95
2022-10-22T17:52:13.839Z,4.43
2022-10-22T17:54:42.102Z,4.22
2022-10-22T17:57:09.767Z,7.72
2022-10-22T17:59:36.817Z,8.25
2022-10-22T18:02:04.170Z,7.07
2022-10-22T18:04:32.262Z,12.30
2022-10-22T18:06:59.725Z,21.60
2022-10-22T18:09:27.007Z,15.00
2022-10-22T18:11:54.947Z,4.72
2022-10-22T18:19:39.504Z,5.93
2022-10-22T18:22:08.042Z,6.55
2022-10-22T18:24:36.831Z,5.60
2022-10-22T18:27:04.150Z,4.28
2022-10-22T18:29:31.194Z,6.97
2022-10-22T18:31:58.125Z,5.47
2022-10-22T18:34:25.138Z,4.22
2022-10-22T18:36:52.250Z,6.35
2022-10-22T18:39:19.692Z,5.63
2022-10-22T18:41:46.708Z,4.90
2022-10-22T18:44:15.406Z,5.00
2022-10-22T18:46:42.953Z,4.82
2022-10-22T18:49:16.527Z,4.68
2022-10-22T18:51:43.453Z,6.47
2022-10-22T18:54:22.702Z,11.10
2022-10-22T18:56:50.551Z,8.20
2022-10-22T18:59:23.235Z,5.85
2022-10-22T19:01:52.715Z,7.38
2022-10-22T19:04:20.052Z,5.45
2022-10-22T19:06:47.251Z,5.13
2022-10-22T19:09:15.669Z,5.20
2022-10-22T19:11:44.360Z,3.95
2022-10-22T19:14:11.353Z,3.65
2022-10-22T19:16:38.853Z,4.38
2022-10-22T19:19:07.423Z,3.13
2022-10-22T19:21:36.645Z,4.13
2022-10-22T19:24:06.468Z,5.20
2022-10-22T19:26:33.720Z,3.58
2022-10-22T19:29:00.814Z,3.28
2022-10-22T19:31:30.188Z,4.00
2022-10-22T19:33:58.848Z,3.20
2022-10-22T19:36:30.391Z,4.90
2022-10-22T19:38:57.643Z,3.85
2022-10-22T19:41:26.922Z,4.38
2022-10-22T19:43:54.875Z,3.15
2022-10-22T19:46:23.091Z,4.43
2022-10-22T19:48:51.537Z,3.90
2022-10-22T19:51:21.692Z,4.57
2022-10-22T19:53:49.625Z,3.72
2022-10-22T19:56:20.037Z,4.38
2022-10-22T19:58:47.894Z,4.05
2022-10-22T20:01:17.072Z,4.50
2022-10-22T20:03:44.298Z,4.22
2022-10-22T20:06:13.969Z,5.07
2022-10-22T20:08:41.445Z,4.28
2022-10-22T20:11:15.402Z,3.58
2022-10-22T20:13:43.627Z,4.05
2022-10-22T20:16:15.903Z,4.22
2022-10-22T20:18:43.038Z,4.70
2022-10-22T20:21:13.960Z,4.20
2022-10-22T20:23:42.168Z,4.13
2022-10-22T20:26:09.852Z,4.15
2022-10-22T20:28:38.392Z,4.63
2022-10-22T20:31:17.676Z,4.25
2022-10-22T20:33:44.814Z,3.65
2022-10-22T20:36:21.194Z,3.60
2022-10-22T20:38:48.658Z,3.67
2022-10-22T20:41:19.501Z,3.83
2022-10-22T20:43:48.165Z,4.03
2022-10-22T20:46:29.532Z,3.80
2022-10-22T20:49:06.312Z,5.28
2022-10-22T20:51:34.986Z,5.13
2022-10-22T20:54:02.169Z,4.63
2022-10-22T20:56:29.432Z,4.20
2022-10-22T20:59:04.599Z,4.13
2022-10-22T21:01:53.024Z,4.72
2022-10-22T21:04:21.559Z,5.32
2022-10-22T21:06:50.370Z,4.45
2022-10-22T21:09:17.498Z,6.60
2022-10-22T21:11:44.594Z,4.53
2022-10-22T21:14:13.801Z,4.30
2022-10-22T21:16:46.592Z,12.40
2022-10-22T21:19:13.589Z,3.83
2022-10-22T21:21:41.007Z,4.40
2022-10-22T21:24:08.063Z,2.85
2022-10-22T21:26:39.611Z,4.07
2022-10-22T21:29:07.048Z,5.18
2022-10-22T21:31:34.200Z,6.55
2022-10-22T21:34:01.248Z,5.68
2022-10-22T21:36:28.241Z,3.90
2022-10-22T21:38:55.496Z,4.85
2022-10-22T21:41:23.970Z,3.70
2022-10-22T21:43:56.214Z,3.20
2022-10-22T21:46:25.818Z,4.70
2022-10-22T21:48:54.748Z,4.05
2022-10-22T21:51:23.412Z,3.40
2022-10-22T21:56:36.348Z,4.32
2022-10-22T21:59:21.870Z,4.60
2022-10-22T22:01:49.013Z,3.78
2022-10-22T22:04:15.956Z,3.95
2022-10-22T22:06:54.107Z,5.18
2022-10-22T22:09:21.973Z,3.83
2022-10-22T22:11:49.096Z,2.90
2022-10-22T22:14:16.168Z,3.85
2022-10-22T22:16:43.044Z,3.40
2022-10-22T22:19:10.695Z,4.80
2022-10-22T22:21:39.868Z,3.47
2022-10-22T22:24:08.367Z,3.70
2022-10-22T22:26:35.396Z,3.78
2022-10-22T22:29:02.606Z,4.20
2022-10-22T22:31:32.239Z,4.22
2022-10-22T22:34:05.802Z,3.75
2022-10-22T22:36:35.475Z,4.43
2022-10-22T22:39:07.155Z,3.35
2022-10-22T22:41:34.552Z,3.03
2022-10-22T22:44:01.875Z,3.95
2022-10-22T22:46:29.089Z,3.40
2022-10-22T22:48:56.302Z,3.33
2022-10-22T22:51:23.770Z,4.07
2022-10-22T22:53:51.400Z,3.20
2022-10-22T22:56:22.643Z,3.42
2022-10-22T22:58:50.200Z,3.30
2022-10-22T23:01:20.839Z,3.45
2022-10-22T23:03:54.408Z,3.92
2022-10-22T23:06:21.392Z,3.80
2022-10-22T23:08:50.509Z,3.00
2022-10-22T23:11:18.190Z,3.53
2022-10-22T23:13:45.813Z,3.70
2022-10-22T23:16:19.116Z,3.45
2022-10-22T23:18:47.988Z,4.45
2022-10-22T23:21:26.947Z,4.10
2022-10-22T23:23:58.443Z,3.75
2022-10-22T23:26:29.437Z,4.07
2022-10-22T23:29:01.672Z,4.30
2022-10-22T23:31:28.744Z,4.50
2022-10-22T23:33:55.718Z,3.58
2022-10-22T23:36:22.812Z,3.35
2022-10-22T23:38:50.975Z,3.53
2022-10-22T23:44:24.949Z,3.63
2022-10-22T23:46:52.311Z,3.50
2022-10-22T23:49:19.453Z,3.38
2022-10-22T23:51:46.600Z,3.95
2022-10-22T23:54:16.006Z,3.58
2022-10-22T23:56:43.079Z,4.20
2022-10-22T23:59:10.672Z,3.95
